createdAt,value
2018-04-14T00:00:49.991Z,101.97
2018-04-14T00:03:18.343Z,88.47
2018-04-14T00:05:46.732Z,97.50
2018-04-14T00:08:15.180Z,94.47
2018-04-14T00:10:43.506Z,86.03
2018-04-14T00:13:11.915Z,100.67
2018-04-14T00:15:40.329Z,98.20
2018-04-14T00:18:08.715Z,93.57
2018-04-14T00:20:37.155Z,98.13
2018-04-14T00:23:05.502Z,94.80
2018-04-14T00:25:33.851Z,96.93
2018-04-14T00:28:03.013Z,96.87
2018-04-14T00:30:32.616Z,102.23
2018-04-14T00:33:00.947Z,97.03
2018-04-14T00:35:30.174Z,93.67
2018-04-14T00:37:58.579Z,91.20
2018-04-14T00:40:26.932Z,94.93
2018-04-14T00:42:55.344Z,93.37
2018-04-14T00:45:23.735Z,102.47
2018-04-14T00:47:52.144Z,95.90
2018-04-14T00:50:20.532Z,98.37
2018-04-14T00:52:49.064Z,91.43
2018-04-14T00:55:17.439Z,93.17
2018-04-14T00:57:45.853Z,90.47
2018-04-14T01:00:15.011Z,89.83
2018-04-14T01:02:43.353Z,92.90
2018-04-14T01:05:11.688Z,97.17
2018-04-14T01:07:40.844Z,90.57
2018-04-14T01:10:09.216Z,88.10
2018-04-14T01:12:37.608Z,89.37
2018-04-14T01:15:06.014Z,98.90
2018-04-14T01:17:34.381Z,96.30
2018-04-14T01:20:02.811Z,92.93
2018-04-14T01:22:31.224Z,95.47
2018-04-14T01:24:59.633Z,98.70
2018-04-14T01:27:28.787Z,104.27
2018-04-14T01:29:57.196Z,103.77
2018-04-14T01:35:00.276Z,98.17
2018-04-14T01:37:28.669Z,104.63
2018-04-14T01:39:57.029Z,92.77
2018-04-14T01:42:25.477Z,103.10
2018-04-14T01:44:53.815Z,97.20
2018-04-14T01:47:22.236Z,107.27
2018-04-14T01:49:50.595Z,94.40
2018-04-14T01:52:19.740Z,89.67
2018-04-14T01:54:48.133Z,90.53
2018-04-14T01:57:16.493Z,92.17
2018-04-14T01:59:44.870Z,87.80
2018-04-14T02:02:13.289Z,101.73
2018-04-14T02:04:42.463Z,96.63
2018-04-14T02:07:10.860Z,94.57
2018-04-14T02:09:39.247Z,97.17
2018-04-14T02:12:08.467Z,98.40
2018-04-14T02:14:36.827Z,104.53
2018-04-14T02:17:05.926Z,97.17
2018-04-14T02:19:35.053Z,103.87
2018-04-14T02:22:03.448Z,103.70
2018-04-14T02:24:31.853Z,97.67
2018-04-14T02:27:00.243Z,93.87
2018-04-14T02:29:29.419Z,95.83
2018-04-14T02:31:57.887Z,93.83
2018-04-14T02:34:26.256Z,92.90
2018-04-14T02:36:54.720Z,91.80
2018-04-14T02:39:23.076Z,87.07
2018-04-14T02:41:51.465Z,90.80
2018-04-14T02:44:19.880Z,86.83
2018-04-14T02:46:48.262Z,89.33
2018-04-14T02:49:16.676Z,86.33
2018-04-14T02:51:45.809Z,98.20
2018-04-14T02:54:14.159Z,92.27
2018-04-14T02:56:42.953Z,95.57
2018-04-14T02:59:11.340Z,90.87
2018-04-14T03:01:39.668Z,97.30
2018-04-14T03:04:08.049Z,98.40
2018-04-14T03:06:36.432Z,94.87
2018-04-14T03:09:06.713Z,95.23
2018-04-14T03:11:35.131Z,100.17
2018-04-14T03:14:03.641Z,101.93
2018-04-14T03:16:32.029Z,100.27
2018-04-14T03:19:00.375Z,100.83
2018-04-14T03:21:29.663Z,96.60
2018-04-14T03:23:58.031Z,101.20
2018-04-14T03:26:26.420Z,100.90
2018-04-14T03:28:54.849Z,104.07
2018-04-14T03:31:23.253Z,102.20
2018-04-14T03:33:51.787Z,96.27
2018-04-14T03:36:20.186Z,101.97
2018-04-14T03:38:48.594Z,99.47
2018-04-14T03:41:17.496Z,99.77
2018-04-14T03:43:45.895Z,102.40
2018-04-14T03:46:15.087Z,105.43
2018-04-14T03:48:43.710Z,87.13
2018-04-14T03:51:12.107Z,99.03
2018-04-14T03:53:40.533Z,98.57
2018-04-14T03:56:09.711Z,98.37
2018-04-14T03:58:38.113Z,96.27
2018-04-14T04:01:07.273Z,93.03
2018-04-14T04:03:35.690Z,102.27
2018-04-14T04:06:04.805Z,101.33
2018-04-14T04:08:33.233Z,105.47
2018-04-14T04:11:01.645Z,102.27
2018-04-14T04:13:30.833Z,101.80
2018-04-14T04:15:59.992Z,103.67
2018-04-14T04:18:40.397Z,96.17
2018-04-14T04:21:21.212Z,106.97
2018-04-14T04:24:01.510Z,100.67
2018-04-14T04:26:30.653Z,102.13
2018-04-14T04:28:59.035Z,104.80
2018-04-14T04:31:27.399Z,103.90
2018-04-14T04:33:55.797Z,108.63
2018-04-14T04:36:24.169Z,100.97
2018-04-14T04:38:52.596Z,103.73
2018-04-14T04:41:21.002Z,99.27
2018-04-14T04:43:49.376Z,102.90
2018-04-14T04:46:17.734Z,104.80
2018-04-14T04:48:46.958Z,109.63
2018-04-14T04:51:15.758Z,101.50
2018-04-14T04:53:44.184Z,108.83
2018-04-14T04:56:12.580Z,102.33
2018-04-14T04:58:41.777Z,106.37
2018-04-14T05:01:10.951Z,101.07
2018-04-14T05:03:39.315Z,100.60
2018-04-14T05:06:07.653Z,97.50
2018-04-14T05:08:36.202Z,96.87
2018-04-14T05:11:04.548Z,105.00
2018-04-14T05:13:32.956Z,104.67
2018-04-14T05:16:01.492Z,102.30
2018-04-14T05:18:29.856Z,96.90
2018-04-14T05:20:58.197Z,98.00
2018-04-14T05:23:26.551Z,89.00
2018-04-14T05:25:55.307Z,97.80
2018-04-14T05:28:23.709Z,97.07
2018-04-14T05:30:52.111Z,89.27
2018-04-14T05:33:20.875Z,93.53
2018-04-14T05:35:49.228Z,96.30
2018-04-14T05:38:17.572Z,89.93
2018-04-14T05:40:46.760Z,89.20
2018-04-14T05:43:15.873Z,94.63
2018-04-14T05:45:44.333Z,88.43
2018-04-14T05:48:13.447Z,86.30
2018-04-14T05:50:41.902Z,87.03
2018-04-14T05:53:11.049Z,82.77
2018-04-14T05:55:39.487Z,79.73
2018-04-14T05:58:08.644Z,81.40
2018-04-14T06:00:37.036Z,82.43
2018-04-14T06:03:05.463Z,85.53
2018-04-14T06:05:33.864Z,82.70
2018-04-14T06:08:02.329Z,89.17
2018-04-14T06:10:30.729Z,85.77
2018-04-14T06:12:59.082Z,81.13
2018-04-14T06:15:27.518Z,77.87
2018-04-14T06:17:55.892Z,77.97
2018-04-14T06:20:24.329Z,74.60
2018-04-14T06:22:52.701Z,74.80
2018-04-14T06:25:21.072Z,80.43
2018-04-14T06:27:49.489Z,78.73
2018-04-14T06:30:17.864Z,76.40
2018-04-14T06:32:46.345Z,74.50
2018-04-14T06:35:14.745Z,75.57
2018-04-14T06:37:43.139Z,80.80
2018-04-14T06:40:12.277Z,78.47
2018-04-14T06:42:40.696Z,79.27
2018-04-14T06:45:09.337Z,76.70
2018-04-14T06:47:37.761Z,82.43
2018-04-14T06:50:06.183Z,76.70
2018-04-14T06:52:34.589Z,73.67
2018-04-14T06:55:03.036Z,74.07
2018-04-14T06:57:31.438Z,73.13
2018-04-14T07:00:00.374Z,73.93
2018-04-14T07:02:28.736Z,71.97
2018-04-14T07:04:57.124Z,73.00
2018-04-14T07:07:25.579Z,75.17
2018-04-14T07:09:53.944Z,80.33
2018-04-14T07:12:22.449Z,76.93
2018-04-14T07:14:52.905Z,81.03
2018-04-14T07:17:22.131Z,74.70
2018-04-14T07:19:53.944Z,71.40
2018-04-14T07:22:24.109Z,69.33
2018-04-14T07:24:52.734Z,65.03
2018-04-14T07:27:21.124Z,63.97
2018-04-14T07:29:49.524Z,60.87
2018-04-14T07:32:18.708Z,65.17
2018-04-14T07:34:48.658Z,58.73
2018-04-14T07:37:18.808Z,67.40
2018-04-14T07:39:47.245Z,63.57
2018-04-14T07:42:15.638Z,62.77
2018-04-14T07:44:44.038Z,55.93
2018-04-14T07:47:12.405Z,54.50
2018-04-14T07:49:40.782Z,63.97
2018-04-14T07:52:09.193Z,51.77
2018-04-14T07:54:37.733Z,55.77
2018-04-14T07:57:06.129Z,56.43
2018-04-14T07:59:34.528Z,59.67
2018-04-14T08:02:02.950Z,55.37
2018-04-14T08:04:31.341Z,51.73
2018-04-14T08:06:59.749Z,61.60
2018-04-14T08:09:28.116Z,56.63
2018-04-14T08:11:56.545Z,57.83
2018-04-14T08:14:24.964Z,61.13
2018-04-14T08:16:53.375Z,54.97
2018-04-14T08:19:21.752Z,56.10
2018-04-14T08:21:50.188Z,54.53
2018-04-14T08:24:18.549Z,54.83
2018-04-14T08:26:48.180Z,58.40
2018-04-14T08:29:16.583Z,58.93
2018-04-14T08:31:44.972Z,54.07
2018-04-14T08:34:13.356Z,57.63
2018-04-14T08:36:41.754Z,60.63
2018-04-14T08:39:10.180Z,52.80
2018-04-14T08:41:38.578Z,54.10
2018-04-14T08:44:07.044Z,56.33
2018-04-14T08:46:35.449Z,53.07
2018-04-14T08:49:03.790Z,53.30
2018-04-14T08:51:32.186Z,54.90
2018-04-14T08:54:01.392Z,54.67
2018-04-14T08:56:29.790Z,51.07
2018-04-14T08:58:58.230Z,53.70
2018-04-14T09:01:26.637Z,55.23
2018-04-14T09:03:55.028Z,51.27
2018-04-14T09:06:23.449Z,52.73
2018-04-14T09:08:51.847Z,53.37
2018-04-14T09:11:20.766Z,51.20
2018-04-14T09:13:49.166Z,55.40
2018-04-14T09:16:18.325Z,55.20
2018-04-14T09:18:46.721Z,58.47
2018-04-14T09:21:15.112Z,53.27
2018-04-14T09:23:43.515Z,54.83
2018-04-14T09:26:11.933Z,52.00
2018-04-14T09:28:40.272Z,53.50
2018-04-14T09:31:08.731Z,51.20
2018-04-14T09:33:37.875Z,50.90
2018-04-14T09:36:06.281Z,52.87
2018-04-14T09:38:35.504Z,50.27
2018-04-14T09:41:04.684Z,51.70
2018-04-14T09:43:33.057Z,50.50
2018-04-14T09:46:01.508Z,49.97
2018-04-14T09:48:29.913Z,45.87
2018-04-14T09:50:58.315Z,45.73
2018-04-14T09:53:26.647Z,43.33
2018-04-14T09:55:55.054Z,40.73
2018-04-14T09:58:23.419Z,41.47
2018-04-14T10:00:57.421Z,43.10
2018-04-14T10:03:25.877Z,47.20
2018-04-14T10:05:54.255Z,40.70
2018-04-14T10:08:22.708Z,43.60
2018-04-14T10:10:51.868Z,42.23
2018-04-14T10:13:20.343Z,46.23
2018-04-14T10:15:48.691Z,46.20
2018-04-14T10:18:17.092Z,44.00
2018-04-14T10:20:45.506Z,46.70
2018-04-14T10:23:14.698Z,45.27
2018-04-14T10:25:43.271Z,44.37
2018-04-14T10:28:11.651Z,45.63
2018-04-14T10:30:40.067Z,45.10
2018-04-14T10:33:08.433Z,44.90
2018-04-14T10:35:37.536Z,40.67
2018-04-14T10:38:05.941Z,42.90
2018-04-14T10:40:34.741Z,41.70
2018-04-14T10:43:03.138Z,44.27
2018-04-14T10:45:31.533Z,42.57
2018-04-14T10:47:59.956Z,39.13
2018-04-14T10:50:28.392Z,38.87
2018-04-14T10:52:57.170Z,42.43
2018-04-14T10:55:25.508Z,40.80
2018-04-14T10:57:53.901Z,42.07
2018-04-14T11:00:22.325Z,41.13
2018-04-14T11:02:51.429Z,37.70
2018-04-14T11:05:20.623Z,39.47
2018-04-14T11:07:49.725Z,42.23
2018-04-14T11:10:18.909Z,42.00
2018-04-14T11:12:48.074Z,41.47
2018-04-14T11:15:16.510Z,41.57
2018-04-14T11:17:44.907Z,42.03
2018-04-14T11:20:13.313Z,42.30
2018-04-14T11:22:42.168Z,38.97
2018-04-14T11:25:10.511Z,40.30
2018-04-14T11:27:39.620Z,37.63
2018-04-14T11:30:08.453Z,42.23
2018-04-14T11:32:36.823Z,40.93
2018-04-14T11:35:05.176Z,43.30
2018-04-14T11:37:33.618Z,41.30
2018-04-14T11:40:02.814Z,40.80
2018-04-14T11:42:31.219Z,41.43
2018-04-14T11:44:59.609Z,44.03
2018-04-14T11:47:28.003Z,42.63
2018-04-14T11:49:56.452Z,38.90
2018-04-14T11:52:24.847Z,42.73
2018-04-14T11:54:53.740Z,40.87
2018-04-14T11:57:22.078Z,42.37
2018-04-14T11:59:51.253Z,41.77
2018-04-14T12:02:19.651Z,41.67
2018-04-14T12:04:48.380Z,42.47
2018-04-14T12:07:16.787Z,41.27
2018-04-14T12:09:45.162Z,45.07
2018-04-14T12:12:14.462Z,47.63
2018-04-14T12:14:42.863Z,43.63
2018-04-14T12:17:11.201Z,47.13
2018-04-14T12:19:39.628Z,41.43
2018-04-14T12:22:08.790Z,45.93
2018-04-14T12:24:37.294Z,42.67
2018-04-14T12:27:05.652Z,43.37
2018-04-14T12:29:34.049Z,42.93
2018-04-14T12:32:02.465Z,48.13
2018-04-14T12:34:30.877Z,43.10
2018-04-14T12:36:59.565Z,45.57
2018-04-14T12:39:27.992Z,44.47
2018-04-14T12:41:57.137Z,42.83
2018-04-14T12:44:25.525Z,46.43
2018-04-14T12:46:53.951Z,46.13
2018-04-14T12:49:22.417Z,43.10
2018-04-14T12:51:51.577Z,44.33
2018-04-14T12:54:19.912Z,49.47
2018-04-14T12:56:48.306Z,46.07
2018-04-14T12:59:16.708Z,46.90
2018-04-14T13:01:45.116Z,46.97
2018-04-14T13:04:13.518Z,46.17
2018-04-14T13:06:42.644Z,46.73
2018-04-14T13:09:11.167Z,48.53
2018-04-14T13:11:39.565Z,47.27
2018-04-14T13:14:08.725Z,46.90
2018-04-14T13:16:37.180Z,47.07
2018-04-14T13:19:05.581Z,48.33
2018-04-14T13:21:34.756Z,48.37
2018-04-14T13:24:03.178Z,50.47
2018-04-14T13:26:31.576Z,50.90
2018-04-14T13:29:00.882Z,51.63
2018-04-14T13:31:29.253Z,51.03
2018-04-14T13:33:58.391Z,50.80
2018-04-14T13:36:26.757Z,51.10
2018-04-14T13:38:55.642Z,54.23
2018-04-14T13:41:24.038Z,46.87
2018-04-14T13:43:52.401Z,53.83
2018-04-14T13:46:20.789Z,50.30
2018-04-14T13:48:49.123Z,51.67
2018-04-14T13:51:18.715Z,48.43
2018-04-14T13:53:47.064Z,49.77
2018-04-14T13:56:15.404Z,50.10
2018-04-14T13:58:43.810Z,47.50
2018-04-14T14:01:12.146Z,54.87
2018-04-14T14:03:41.300Z,54.90
2018-04-14T14:06:09.699Z,56.37
2018-04-14T14:08:38.250Z,51.50
2018-04-14T14:11:06.661Z,49.13
2018-04-14T14:13:35.006Z,50.37
2018-04-14T14:16:03.428Z,46.07
2018-04-14T14:18:32.616Z,53.33
2018-04-14T14:21:01.078Z,54.00
2018-04-14T14:23:29.502Z,48.77
2018-04-14T14:25:57.872Z,51.07
2018-04-14T14:28:27.380Z,51.53
2018-04-14T14:30:55.772Z,51.23
2018-04-14T14:33:24.141Z,52.77
2018-04-14T14:35:52.528Z,53.60
2018-04-14T14:38:20.894Z,55.00
2018-04-14T14:40:49.316Z,52.70
2018-04-14T14:43:17.692Z,52.50
2018-04-14T14:45:46.217Z,53.73
2018-04-14T14:48:15.353Z,51.93
2018-04-14T14:50:43.727Z,54.40
2018-04-14T14:53:12.152Z,53.23
2018-04-14T14:55:40.547Z,50.30
2018-04-14T14:58:09.752Z,53.47
2018-04-14T15:00:38.886Z,52.43
2018-04-14T15:03:07.291Z,55.13
2018-04-14T15:05:35.798Z,54.70
2018-04-14T15:08:04.961Z,55.67
2018-04-14T15:10:33.311Z,54.80
2018-04-14T15:13:02.161Z,53.90
2018-04-14T15:15:31.328Z,50.00
2018-04-14T15:17:59.724Z,53.43
2018-04-14T15:20:28.176Z,55.23
2018-04-14T15:22:56.503Z,56.53
2018-04-14T15:25:25.708Z,53.57
2018-04-14T15:27:54.333Z,56.37
2018-04-14T15:30:22.712Z,56.07
2018-04-14T15:32:51.076Z,55.43
2018-04-14T15:35:19.539Z,57.77
2018-04-14T15:37:47.929Z,60.53
2018-04-14T15:40:16.329Z,59.27
2018-04-14T15:42:44.962Z,60.23
2018-04-14T15:45:13.355Z,53.07
2018-04-14T15:47:41.767Z,59.63
2018-04-14T15:50:10.172Z,55.33
2018-04-14T15:52:38.564Z,56.20
2018-04-14T15:55:07.745Z,59.33
2018-04-14T15:57:36.143Z,59.70
2018-04-14T16:00:05.336Z,58.53
2018-04-14T16:02:34.500Z,60.70
2018-04-14T16:05:02.873Z,56.33
2018-04-14T16:07:31.236Z,58.20
2018-04-14T16:09:59.660Z,54.73
2018-04-14T16:12:28.848Z,59.53
2018-04-14T16:14:57.224Z,55.77
2018-04-14T16:17:25.649Z,58.73
2018-04-14T16:19:54.054Z,54.60
2018-04-14T16:22:22.482Z,54.77
2018-04-14T16:24:51.676Z,57.10
2018-04-14T16:27:20.883Z,51.13
2018-04-14T16:29:49.322Z,51.17
2018-04-14T16:32:17.806Z,50.73
2018-04-14T16:34:46.210Z,48.03
2018-04-14T16:37:15.373Z,47.60
2018-04-14T16:39:43.736Z,45.87
2018-04-14T16:42:12.133Z,46.00
2018-04-14T16:44:40.529Z,45.60
2018-04-14T16:47:09.047Z,47.67
2018-04-14T16:49:37.440Z,47.47
2018-04-14T16:52:05.823Z,46.17
2018-04-14T16:54:34.248Z,46.80
2018-04-14T16:57:03.358Z,51.40
2018-04-14T16:59:32.559Z,48.83
2018-04-14T17:02:00.961Z,49.83
2018-04-14T17:04:29.366Z,51.37
2018-04-14T17:06:57.756Z,49.30
2018-04-14T17:09:26.140Z,46.93
2018-04-14T17:11:54.514Z,50.73
2018-04-14T17:14:22.877Z,47.87
2018-04-14T17:16:51.293Z,47.93
2018-04-14T17:19:20.397Z,48.53
2018-04-14T17:21:49.587Z,49.77
2018-04-14T17:24:18.784Z,51.83
2018-04-14T17:26:47.941Z,48.13
2018-04-14T17:29:16.343Z,45.83
2018-04-14T17:31:44.770Z,50.73
2018-04-14T17:34:13.168Z,50.47
2018-04-14T17:36:42.070Z,49.70
2018-04-14T17:39:10.444Z,47.87
2018-04-14T17:41:38.840Z,54.00
2018-04-14T17:44:07.265Z,50.23
2018-04-14T17:46:35.629Z,49.27
2018-04-14T17:49:04.768Z,48.60
2018-04-14T17:51:33.279Z,53.10
2018-04-14T17:54:01.684Z,48.80
2018-04-14T17:56:30.794Z,51.43
2018-04-14T17:58:59.231Z,49.77
2018-04-14T18:01:27.629Z,51.20
2018-04-14T18:03:57.134Z,49.57
2018-04-14T18:06:26.301Z,49.47
2018-04-14T18:08:54.709Z,53.97
2018-04-14T18:11:23.893Z,49.00
2018-04-14T18:13:52.231Z,52.67
2018-04-14T18:16:20.652Z,46.73
2018-04-14T18:18:49.789Z,50.50
2018-04-14T18:21:18.288Z,47.73
2018-04-14T18:23:46.689Z,47.70
2018-04-14T18:26:15.084Z,45.63
2018-04-14T18:28:43.432Z,53.33
2018-04-14T18:31:11.773Z,49.87
2018-04-14T18:33:40.196Z,52.97
2018-04-14T18:36:08.593Z,47.93
2018-04-14T18:38:37.357Z,51.53
2018-04-14T18:41:05.747Z,48.73
2018-04-14T18:43:34.149Z,46.77
2018-04-14T18:46:03.306Z,55.77
2018-04-14T18:48:31.649Z,58.30
2018-04-14T18:51:00.115Z,58.57
2018-04-14T18:53:28.515Z,52.50
2018-04-14T18:55:56.904Z,59.33
2018-04-14T18:58:25.426Z,54.47
2018-04-14T19:00:53.770Z,55.50
2018-04-14T19:03:22.104Z,58.47
2018-04-14T19:05:51.297Z,57.67
2018-04-14T19:08:19.665Z,59.37
2018-04-14T19:10:48.803Z,57.93
2018-04-14T19:13:17.197Z,55.03
2018-04-14T19:15:46.526Z,61.67
2018-04-14T19:18:14.920Z,57.00
2018-04-14T19:20:44.151Z,59.40
2018-04-14T19:23:12.550Z,60.67
2018-04-14T19:25:40.948Z,61.93
2018-04-14T19:28:09.343Z,56.17
2018-04-14T19:30:37.731Z,59.57
2018-04-14T19:33:06.976Z,65.60
2018-04-14T19:35:35.368Z,65.00
2018-04-14T19:38:03.763Z,70.77
2018-04-14T19:40:32.162Z,59.73
2018-04-14T19:43:01.322Z,65.43
2018-04-14T19:45:29.851Z,62.97
2018-04-14T19:47:58.995Z,65.60
2018-04-14T19:50:27.365Z,64.77
2018-04-14T19:52:55.815Z,68.20
2018-04-14T19:55:24.201Z,59.23
2018-04-14T19:57:53.052Z,65.93
2018-04-14T20:00:21.384Z,63.83
2018-04-14T20:02:49.722Z,62.30
2018-04-14T20:05:18.982Z,60.33
2018-04-14T20:07:48.140Z,64.97
2018-04-14T20:10:16.534Z,69.33
2018-04-14T20:12:45.365Z,64.20
2018-04-14T20:15:13.747Z,73.00
2018-04-14T20:17:42.140Z,61.33
2018-04-14T20:20:11.323Z,63.53
2018-04-14T20:22:39.712Z,62.70
2018-04-14T20:25:08.942Z,62.03
2018-04-14T20:27:37.594Z,59.87
2018-04-14T20:30:06.749Z,68.80
2018-04-14T20:32:35.116Z,72.93
2018-04-14T20:35:03.630Z,64.50
2018-04-14T20:37:32.034Z,68.00
2018-04-14T20:40:01.191Z,70.57
2018-04-14T20:42:29.608Z,65.03
2018-04-14T20:44:58.744Z,64.50
2018-04-14T20:47:27.105Z,65.17
2018-04-14T20:49:55.464Z,65.70
2018-04-14T20:52:24.598Z,63.93
2018-04-14T20:54:52.984Z,65.30
2018-04-14T20:57:21.381Z,68.80
2018-04-14T20:59:49.751Z,68.50
2018-04-14T21:02:18.122Z,68.93
2018-04-14T21:04:46.499Z,71.63
2018-04-14T21:07:14.917Z,73.93
2018-04-14T21:09:44.075Z,65.90
2018-04-14T21:12:12.494Z,66.60
2018-04-14T21:14:41.621Z,83.10
2018-04-14T21:17:09.953Z,70.77
2018-04-14T21:19:38.336Z,71.77
2018-04-14T21:22:07.436Z,64.83
2018-04-14T21:24:36.645Z,73.93
2018-04-14T21:27:05.040Z,69.03
2018-04-14T21:29:33.412Z,74.57
2018-04-14T21:32:01.808Z,64.57
2018-04-14T21:34:30.220Z,69.23
2018-04-14T21:36:58.556Z,75.97
2018-04-14T21:39:26.949Z,76.20
2018-04-14T21:41:55.289Z,72.83
2018-04-14T21:44:23.699Z,69.80
2018-04-14T21:46:52.084Z,72.60
2018-04-14T21:49:20.486Z,70.53
2018-04-14T21:51:48.828Z,71.17
2018-04-14T21:54:17.181Z,79.63
2018-04-14T21:56:45.634Z,81.83
2018-04-14T21:59:14.049Z,76.83
2018-04-14T22:01:42.413Z,79.93
2018-04-14T22:04:12.040Z,72.57
2018-04-14T22:06:40.429Z,76.13
2018-04-14T22:09:08.775Z,72.27
2018-04-14T22:11:38.117Z,72.30
2018-04-14T22:14:06.453Z,79.80
2018-04-14T22:16:35.613Z,83.57
2018-04-14T22:19:04.874Z,80.10
2018-04-14T22:21:33.228Z,78.13
2018-04-14T22:24:01.665Z,76.03
2018-04-14T22:26:30.061Z,69.27
2018-04-14T22:28:58.462Z,77.87
2018-04-14T22:31:26.913Z,69.57
2018-04-14T22:33:55.245Z,72.97
2018-04-14T22:36:23.618Z,73.80
2018-04-14T22:38:52.005Z,71.47
2018-04-14T22:41:20.401Z,71.03
2018-04-14T22:43:48.867Z,80.03
2018-04-14T22:46:17.290Z,77.87
2018-04-14T22:48:45.684Z,78.30
2018-04-14T22:51:14.848Z,79.07
2018-04-14T22:53:43.204Z,64.67
2018-04-14T22:56:11.611Z,75.43
2018-04-14T22:58:40.029Z,78.20
2018-04-14T23:01:08.417Z,86.67
2018-04-14T23:03:36.872Z,70.20
2018-04-14T23:06:05.963Z,80.70
2018-04-14T23:08:35.091Z,75.30
2018-04-14T23:11:03.509Z,73.20
2018-04-14T23:13:31.873Z,78.33
2018-04-14T23:16:00.721Z,77.60
2018-04-14T23:18:29.110Z,92.13
2018-04-14T23:20:57.437Z,87.57
2018-04-14T23:23:25.800Z,80.50
2018-04-14T23:25:54.197Z,94.87
2018-04-14T23:28:22.556Z,95.70
2018-04-14T23:30:50.892Z,97.50
2018-04-14T23:33:19.409Z,89.63
2018-04-14T23:35:47.795Z,113.27
2018-04-14T23:38:16.188Z,90.93
2018-04-14T23:40:44.641Z,97.53
2018-04-14T23:43:12.976Z,95.57
2018-04-14T23:45:41.368Z,91.30
2018-04-14T23:48:09.797Z,96.53
2018-04-14T23:50:38.193Z,90.73
2018-04-14T23:53:07.312Z,97.77
2018-04-14T23:55:35.700Z,89.07
2018-04-14T23:58:04.208Z,88.80
